Time;durP1;ratioP1;P1;durP2;ratioP2;P2;SDS_P1;SDS_P2;PMS_P1;PMS_P2;Temp;Humidity;BMP_temperature;BMP_pressure;BME280_temperature;BME280_humidity;BME280_pressure;Samples;Min_cycle;Max_cycle;Signal;HPM_P1;HPM_P2
2022/04/27 00:00:48;;;;;;;;;;;;;;;17.71;62.96;98731.81;2087468;28;19924;-49
2022/04/27 00:01:48;;;;;;;;;;;;;;;17.71;63.01;98737.19;2083051;28;19931;-48
2022/04/27 00:02:50;;;;;;;;;;;;;;;17.73;62.74;98733.28;2087649;28;19928;-47
2022/04/27 00:03:51;;;;;;;;;;;;;;;17.71;63.03;98732.63;2085494;28;19928;-48
2022/04/27 00:04:53;;;;;;;;;;;;;;;17.69;63.06;98733.84;2083929;28;19936;-46
2022/04/27 00:05:53;;;;;;;;;;;;;;;17.70;63.09;98730.19;2087850;28;19977;-47
2022/04/27 00:06:55;;;;;;;;;;;;;;;17.70;62.84;98727.50;2087197;28;19924;-50
2022/04/27 00:07:55;;;;;;;;;;;;;;;17.68;63.02;98727.66;2086859;28;19921;-47
2022/04/27 00:08:58;;;;;;;;;;;;;;;17.70;63.04;98727.50;2083476;28;19925;-49
2022/04/27 00:09:59;;;;;;;;;;;;;;;17.69;63.13;98725.81;2086674;28;19981;-46
2022/04/27 00:11:00;;;;;;;;;;;;;;;17.69;63.02;98723.13;2086720;28;19970;-47
2022/04/27 00:12:01;;;;;;;;;;;;;;;17.70;62.80;98727.50;2086273;28;19963;-48
2022/04/27 00:13:02;;;;;;;;;;;;;;;17.70;62.84;98727.50;2086326;28;19925;-47
2022/04/27 00:14:03;;;;;;;;;;;;;;;17.70;62.84;98722.13;2088514;28;19928;-47
2022/04/27 00:15:05;;;;;;;;;;;;;;;17.69;62.80;98723.13;2082844;28;19928;-49
2022/04/27 00:16:06;;;;;;;;;;;;;;;17.69;62.98;98733.84;2081974;28;19962;-49
2022/04/27 00:17:07;;;;;;;;;;;;;;;17.67;62.77;98728.72;2085525;28;19933;-48
2022/04/27 00:18:08;;;;;;;;;;;;;;;17.67;62.88;98730.56;2087018;28;19920;-46
2022/04/27 00:19:09;;;;;;;;;;;;;;;17.68;62.88;98729.53;2085418;28;19936;-48
2022/04/27 00:20:11;;;;;;;;;;;;;;;17.70;62.92;98727.50;2084050;28;20051;-46
2022/04/27 00:21:12;;;;;;;;;;;;;;;17.69;63.01;98728.50;2086882;28;19950;-45
2022/04/27 00:22:14;;;;;;;;;;;;;;;17.68;62.88;98716.13;2086569;28;20295;-47
2022/04/27 00:23:15;;;;;;;;;;;;;;;17.68;62.89;98722.31;2075438;28;19925;-46
2022/04/27 00:24:18;;;;;;;;;;;;;;;17.66;63.03;98718.97;2083800;28;20840;-46
2022/04/27 00:25:19;;;;;;;;;;;;;;;17.64;62.81;98713.84;2086193;28;19925;-49
2022/04/27 00:26:20;;;;;;;;;;;;;;;17.64;63.04;98721.88;2085319;28;19935;-46
2022/04/27 00:27:21;;;;;;;;;;;;;;;17.64;62.88;98716.50;2090686;28;19935;-46
2022/04/27 00:28:22;;;;;;;;;;;;;;;17.64;62.97;98718.38;2088235;28;19934;-48
2022/04/27 00:29:23;;;;;;;;;;;;;;;17.64;62.90;98719.19;2081597;28;19927;-47
2022/04/27 00:30:24;;;;;;;;;;;;;;;17.65;62.84;98720.84;2087778;28;20014;-47
2022/04/27 00:31:26;;;;;;;;;;;;;;;17.65;62.90;98715.47;2088829;28;19932;-49
2022/04/27 00:32:27;;;;;;;;;;;;;;;17.67;63.12;98723.34;2090240;28;19921;-47
2022/04/27 00:33:28;;;;;;;;;;;;;;;17.65;62.91;98718.16;2089656;28;19986;-48
2022/04/27 00:34:29;;;;;;;;;;;;;;;17.67;62.92;98717.16;2087503;28;23525;-49
2022/04/27 00:35:30;;;;;;;;;;;;;;;17.68;62.82;98718.81;2087082;28;19931;-46
2022/04/27 00:36:31;;;;;;;;;;;;;;;17.65;62.88;98720.84;2089834;28;19924;-48
2022/04/27 00:37:33;;;;;;;;;;;;;;;17.66;62.97;98724.34;2087295;28;19995;-49
2022/04/27 00:38:33;;;;;;;;;;;;;;;17.68;62.86;98716.94;2086557;28;19921;-46
2022/04/27 00:39:36;;;;;;;;;;;;;;;17.64;62.82;98719.19;2085019;28;20011;-49
2022/04/27 00:40:37;;;;;;;;;;;;;;;17.63;62.83;98714.88;2090878;28;19989;-46
2022/04/27 00:41:38;;;;;;;;;;;;;;;17.64;63.06;98721.88;2088035;28;19928;-46
2022/04/27 00:42:39;;;;;;;;;;;;;;;17.64;62.96;98715.69;2087750;28;20007;-47
2022/04/27 00:43:41;;;;;;;;;;;;;;;17.64;62.79;98723.75;2085559;28;20458;-47
2022/04/27 00:44:43;;;;;;;;;;;;;;;17.64;62.81;98721.88;2088618;28;20334;-45
2022/04/27 00:45:45;;;;;;;;;;;;;;;17.63;62.92;98720.22;2084965;28;20019;-49
2022/04/27 00:46:45;;;;;;;;;;;;;;;17.62;62.97;98721.22;2088894;28;19921;-46
2022/04/27 00:47:47;;;;;;;;;;;;;;;17.63;62.98;98720.22;2090537;28;20601;-49
2022/04/27 00:48:47;;;;;;;;;;;;;;;17.64;62.82;98719.19;2093104;28;20012;-46
2022/04/27 00:49:50;;;;;;;;;;;;;;;17.62;62.98;98723.09;2090569;28;19931;-47
2022/04/27 00:50:51;;;;;;;;;;;;;;;17.61;62.92;98716.91;2084011;28;19931;-48
2022/04/27 00:51:54;;;;;;;;;;;;;;;17.63;62.94;98722.06;2088839;28;20397;-48
2022/04/27 00:52:55;;;;;;;;;;;;;;;17.61;63.12;98722.28;2093680;28;19949;-48
2022/04/27 00:53:58;;;;;;;;;;;;;;;17.59;62.77;98718.94;2086588;28;19937;-47
2022/04/27 00:55:01;;;;;;;;;;;;;;;17.63;63.16;98719.38;2089475;28;20056;-50
2022/04/27 00:56:03;;;;;;;;;;;;;;;17.64;62.84;98719.19;2087551;28;20763;-47
2022/04/27 00:57:04;;;;;;;;;;;;;;;17.62;62.69;98713.19;2088659;28;20011;-47
2022/04/27 00:58:06;;;;;;;;;;;;;;;17.62;62.74;98720.41;2088413;28;20002;-50
2022/04/27 00:59:07;;;;;;;;;;;;;;;17.60;62.96;98714.41;2085938;28;20402;-49
2022/04/27 01:00:08;;;;;;;;;;;;;;;17.61;63.08;98724.94;2085640;28;19928;-47
2022/04/27 01:01:09;;;;;;;;;;;;;;;17.60;62.87;98720.59;2086206;28;19924;-50
2022/04/27 01:02:10;;;;;;;;;;;;;;;17.60;62.86;98715.22;2088037;28;20017;-47
2022/04/27 01:03:13;;;;;;;;;;;;;;;17.59;62.90;98713.59;2087586;28;19927;-50
2022/04/27 01:04:13;;;;;;;;;;;;;;;17.61;62.95;98718.75;2086740;28;19924;-47
2022/04/27 01:05:16;;;;;;;;;;;;;;;17.60;62.81;98715.22;2082665;28;19927;-46
2022/04/27 01:06:17;;;;;;;;;;;;;;;17.59;62.76;98718.94;2087095;28;19920;-51
2022/04/27 01:07:18;;;;;;;;;;;;;;;17.60;62.97;98714.41;2088267;28;19924;-47
2022/04/27 01:08:20;;;;;;;;;;;;;;;17.60;62.93;98720.59;2089900;28;19921;-49
2022/04/27 01:09:24;;;;;;;;;;;;;;;17.62;62.96;98712.38;2087539;28;20006;-47
2022/04/27 01:10:27;;;;;;;;;;;;;;;17.61;62.94;98716.09;2087731;28;19929;-47
2022/04/27 01:11:29;;;;;;;;;;;;;;;17.62;62.89;98720.41;2087775;28;20262;-47
2022/04/27 01:12:29;;;;;;;;;;;;;;;17.60;62.68;98715.22;2086502;28;19920;-46
2022/04/27 01:13:31;;;;;;;;;;;;;;;17.61;62.76;98716.91;2087193;28;19931;-50
2022/04/27 01:14:40;;;;;;;;;;;;;;;17.60;62.75;98715.22;2082928;28;19920;-50
2022/04/27 01:15:41;;;;;;;;;;;;;;;17.59;62.93;98718.94;2085548;28;19932;-49
2022/04/27 01:16:42;;;;;;;;;;;;;;;17.60;62.75;98717.91;2086378;28;19927;-46
2022/04/27 01:17:45;;;;;;;;;;;;;;;17.59;62.85;98713.59;2089070;28;19954;-47
2022/04/27 01:18:45;;;;;;;;;;;;;;;17.61;62.75;98711.53;2091437;28;20510;-46
2022/04/27 01:19:47;;;;;;;;;;;;;;;17.61;62.95;98716.91;2088952;28;19928;-46
2022/04/27 01:20:50;;;;;;;;;;;;;;;17.60;62.75;98714.41;2083215;28;20216;-46
2022/04/27 01:21:52;;;;;;;;;;;;;;;17.59;62.81;98712.75;2089874;28;20390;-47
2022/04/27 01:22:52;;;;;;;;;;;;;;;17.59;62.69;98718.13;2088902;28;20024;-49
2022/04/27 01:23:54;;;;;;;;;;;;;;;17.58;62.78;98716.47;2086703;28;20304;-49
2022/04/27 01:24:56;;;;;;;;;;;;;;;17.59;62.85;98716.25;2083715;28;20387;-49
2022/04/27 01:26:05;;;;;;;;;;;;;;;17.60;62.84;98706.34;2087628;28;19939;-47
2022/04/27 01:27:05;;;;;;;;;;;;;;;17.58;62.92;98708.44;2086142;28;19970;-49
2022/04/27 01:28:09;;;;;;;;;;;;;;;17.57;62.90;98712.13;2089022;28;20336;-48
2022/04/27 01:29:14;;;;;;;;;;;;;;;17.57;62.87;98714.78;2089118;28;20019;-46
2022/04/27 01:30:14;;;;;;;;;;;;;;;17.57;62.79;98715.63;2083849;28;19921;-48
2022/04/27 01:31:16;;;;;;;;;;;;;;;17.55;62.93;98709.66;2087361;28;19956;-51
2022/04/27 01:32:16;;;;;;;;;;;;;;;17.55;62.86;98708.78;2088611;28;19936;-50
2022/04/27 01:33:18;;;;;;;;;;;;;;;17.58;62.81;98714.63;2087057;28;19950;-48
2022/04/27 01:34:19;;;;;;;;;;;;;;;17.55;62.81;98717.69;2087608;28;20382;-48
2022/04/27 01:35:20;;;;;;;;;;;;;;;17.55;62.85;98709.66;2086483;28;19943;-48
2022/04/27 01:36:22;;;;;;;;;;;;;;;17.55;62.78;98715.00;2085327;28;19978;-50
2022/04/27 01:38:43;;;;;;;;;;;;;;;17.53;62.70;98709.00;2087497;28;19928;-47
2022/04/27 01:39:43;;;;;;;;;;;;;;;17.54;62.87;98713.34;2085016;28;19928;-47
2022/04/27 01:40:45;;;;;;;;;;;;;;;17.54;62.85;98707.97;2088924;28;19959;-48
2022/04/27 01:41:45;;;;;;;;;;;;;;;17.55;62.96;98711.47;2086827;28;19950;-48
2022/04/27 01:42:48;;;;;;;;;;;;;;;17.54;62.93;98710.66;2085109;28;19921;-47
2022/04/27 01:43:49;;;;;;;;;;;;;;;17.54;62.61;98705.28;2084375;28;20000;-48
2022/04/27 01:44:50;;;;;;;;;;;;;;;17.54;62.99;98710.66;2084140;28;21236;-48
2022/04/27 01:45:51;;;;;;;;;;;;;;;17.55;63.08;98715.00;2081994;28;19924;-47
2022/04/27 01:46:52;;;;;;;;;;;;;;;17.54;62.70;98707.16;2084515;28;20019;-47
2022/04/27 01:47:54;;;;;;;;;;;;;;;17.53;62.85;98705.50;2086543;28;19928;-48
2022/04/27 01:48:56;;;;;;;;;;;;;;;17.54;62.93;98710.66;2086556;28;20019;-46
2022/04/27 01:49:56;;;;;;;;;;;;;;;17.54;62.85;98707.97;2090322;28;20953;-46
2022/04/27 01:50:58;;;;;;;;;;;;;;;17.53;62.71;98714.38;2089795;28;19929;-49
2022/04/27 01:54:37;;;;;;;;;;;;;;;17.52;62.89;98707.31;2086583;28;20496;-50
2022/04/27 01:55:39;;;;;;;;;;;;;;;17.52;62.76;98711.88;2085569;28;19928;-47
2022/04/27 01:56:40;;;;;;;;;;;;;;;17.51;63.07;98705.69;2087708;28;20018;-51
2022/04/27 01:57:41;;;;;;;;;;;;;;;17.53;62.79;98708.19;2083986;28;19928;-50
2022/04/27 01:58:44;;;;;;;;;;;;;;;17.53;62.86;98708.19;2086697;28;20043;-47
2022/04/27 01:59:44;;;;;;;;;;;;;;;17.52;62.92;98701.97;2089053;28;19921;-49
2022/04/27 02:00:47;;;;;;;;;;;;;;;17.53;63.03;98702.81;2087783;28;20021;-48
2022/04/27 02:01:48;;;;;;;;;;;;;;;17.55;62.73;98708.78;2086793;28;19969;-48
2022/04/27 02:02:49;;;;;;;;;;;;;;;17.55;62.74;98706.97;2086887;28;19935;-48
2022/04/27 02:03:51;;;;;;;;;;;;;;;17.55;62.79;98703.44;2087582;28;19928;-48
2022/04/27 02:04:54;;;;;;;;;;;;;;;17.54;62.67;98705.28;2086766;28;20577;-50
2022/04/27 02:05:56;;;;;;;;;;;;;;;17.54;62.82;98702.59;2088792;28;19925;-47
2022/04/27 02:06:57;;;;;;;;;;;;;;;17.52;62.78;98703.81;2087698;28;20404;-46
2022/04/27 02:08:00;;;;;;;;;;;;;;;17.51;62.80;98705.69;2088545;28;20394;-47
2022/04/27 02:09:02;;;;;;;;;;;;;;;17.53;62.95;98708.19;2089502;28;19924;-47
2022/04/27 02:10:05;;;;;;;;;;;;;;;17.53;63.11;98705.50;2088505;28;19920;-48
2022/04/27 02:11:06;;;;;;;;;;;;;;;17.51;62.88;98705.69;2085753;28;19978;-46
2022/04/27 02:12:08;;;;;;;;;;;;;;;17.52;62.88;98711.88;2083000;28;19931;-48
2022/04/27 02:13:10;;;;;;;;;;;;;;;17.50;62.93;98708.56;2085193;28;19924;-48
2022/04/27 02:14:11;;;;;;;;;;;;;;;17.50;62.67;98704.03;2087724;28;20526;-46
2022/04/27 02:15:12;;;;;;;;;;;;;;;17.50;62.79;98704.03;2086191;28;19995;-45
2022/04/27 02:16:13;;;;;;;;;;;;;;;17.50;62.91;98712.06;2090663;28;19924;-47
2022/04/27 02:17:14;;;;;;;;;;;;;;;17.51;62.75;98705.69;2087041;28;20968;-46
2022/04/27 02:18:17;;;;;;;;;;;;;;;17.52;62.80;98703.81;2085063;28;20401;-45
2022/04/27 02:19:17;;;;;;;;;;;;;;;17.50;62.92;98708.56;2084642;28;19969;-47
2022/04/27 02:20:19;;;;;;;;;;;;;;;17.52;62.84;98707.31;2088104;28;19929;-48
2022/04/27 02:21:20;;;;;;;;;;;;;;;17.53;62.71;98702.81;2088393;28;19966;-48
2022/04/27 02:22:21;;;;;;;;;;;;;;;17.52;62.95;98701.97;2087761;28;21654;-47
2022/04/27 02:23:24;;;;;;;;;;;;;;;17.50;62.75;98698.66;2085110;28;19928;-47
2022/04/27 02:24:25;;;;;;;;;;;;;;;17.48;62.81;98703.38;2086634;28;20019;-50
2022/04/27 02:25:27;;;;;;;;;;;;;;;17.49;62.85;98702.34;2086323;28;19924;-46
2022/04/27 02:26:27;;;;;;;;;;;;;;;17.50;63.09;98709.41;2089275;28;19924;-47
2022/04/27 02:27:29;;;;;;;;;;;;;;;17.48;62.83;98700.72;2081899;28;20759;-50
2022/04/27 02:28:30;;;;;;;;;;;;;;;17.48;62.79;98700.72;2085550;28;20274;-46
2022/04/27 02:29:31;;;;;;;;;;;;;;;17.48;62.90;98698.03;2085423;28;19920;-50
2022/04/27 02:30:32;;;;;;;;;;;;;;;17.49;63.06;98696.16;2087662;28;19924;-50
2022/04/27 02:31:34;;;;;;;;;;;;;;;17.49;62.92;98697.00;2089135;28;19932;-47
2022/04/27 02:32:34;;;;;;;;;;;;;;;17.50;62.69;98703.22;2086998;28;19973;-47
2022/04/27 02:33:36;;;;;;;;;;;;;;;17.51;62.86;98699.50;2084196;28;19929;-47
2022/04/27 02:34:36;;;;;;;;;;;;;;;17.52;62.88;98698.47;2085523;28;19932;-48
2022/04/27 02:35:38;;;;;;;;;;;;;;;17.49;62.75;98694.31;2089058;28;19940;-49
2022/04/27 02:36:38;;;;;;;;;;;;;;;17.47;62.86;98696.38;2086142;28;19943;-48
2022/04/27 02:37:40;;;;;;;;;;;;;;;17.46;62.94;98694.69;2086808;28;20706;-48
2022/04/27 02:38:42;;;;;;;;;;;;;;;17.48;62.93;98698.03;2086030;28;20390;-47
2022/04/27 02:39:43;;;;;;;;;;;;;;;17.49;62.83;98698.84;2086184;28;19924;-47
2022/04/27 02:40:45;;;;;;;;;;;;;;;17.51;62.87;98700.31;2087277;28;19932;-47
2022/04/27 02:41:45;;;;;;;;;;;;;;;17.48;62.94;98695.34;2086056;28;19925;-48
2022/04/27 02:42:47;;;;;;;;;;;;;;;17.47;62.72;98695.53;2083164;28;19921;-47
2022/04/27 02:43:49;;;;;;;;;;;;;;;17.45;62.87;98697.59;2084464;28;19928;-47
2022/04/27 02:44:50;;;;;;;;;;;;;;;17.45;62.94;98701.09;2086896;28;19921;-47
2022/04/27 02:45:51;;;;;;;;;;;;;;;17.46;62.86;98697.38;2085328;28;19924;-48
2022/04/27 02:46:52;;;;;;;;;;;;;;;17.46;62.93;98707.28;2088499;28;20367;-46
2022/04/27 02:47:54;;;;;;;;;;;;;;;17.45;62.92;98703.78;2091688;28;20401;-50
2022/04/27 02:51:51;;;;;;;;;;;;;;;17.42;63.02;98698.81;2087540;28;20400;-47
2022/04/27 02:52:53;;;;;;;;;;;;;;;17.43;62.80;98697.78;2085951;28;19931;-47
2022/04/27 02:53:54;;;;;;;;;;;;;;;17.46;62.82;98701.91;2088559;28;19927;-47
2022/04/27 02:54:56;;;;;;;;;;;;;;;17.44;62.87;98696.78;2092659;28;19967;-50
2022/04/27 02:55:56;;;;;;;;;;;;;;;17.47;63.03;98700.88;2087293;28;19927;-46
2022/04/27 02:56:58;;;;;;;;;;;;;;;17.45;62.96;98706.47;2083421;28;19935;-47
2022/04/27 02:58:00;;;;;;;;;;;;;;;17.47;62.98;98701.75;2086790;28;19928;-47
2022/04/27 02:59:00;;;;;;;;;;;;;;;17.44;62.96;98704.81;2083529;28;19931;-48
2022/04/27 03:00:02;;;;;;;;;;;;;;;17.46;62.81;98700.06;2088020;28;19935;-49
2022/04/27 03:01:02;;;;;;;;;;;;;;;17.48;62.97;98703.38;2087987;28;19999;-47
2022/04/27 03:02:04;;;;;;;;;;;;;;;17.47;62.87;98707.09;2087223;28;19924;-49
2022/04/27 03:03:07;;;;;;;;;;;;;;;17.49;62.89;98704.22;2088775;28;19943;-48
2022/04/27 03:04:09;;;;;;;;;;;;;;;17.48;62.93;98708.75;2087100;28;20016;-48
2022/04/27 03:05:10;;;;;;;;;;;;;;;17.47;62.78;98708.94;2086290;28;19952;-47
2022/04/27 03:06:11;;;;;;;;;;;;;;;17.46;62.81;98713.47;2088047;28;19999;-46
2022/04/27 03:07:12;;;;;;;;;;;;;;;17.43;62.81;98708.50;2083303;28;19928;-47
2022/04/27 03:08:14;;;;;;;;;;;;;;;17.46;62.96;98712.66;2087820;28;19935;-49
2022/04/27 03:09:17;;;;;;;;;;;;;;;17.45;62.76;98716.38;2086809;28;20246;-46
2022/04/27 03:10:17;;;;;;;;;;;;;;;17.45;63.00;98716.38;2085549;28;19974;-47
2022/04/27 03:11:19;;;;;;;;;;;;;;;17.46;62.86;98721.50;2083587;28;19924;-48
2022/04/27 03:12:19;;;;;;;;;;;;;;;17.44;62.97;98720.91;2089033;28;19993;-47
2022/04/27 03:13:21;;;;;;;;;;;;;;;17.45;62.86;98719.88;2086308;28;20609;-47
2022/04/27 03:14:22;;;;;;;;;;;;;;;17.47;62.71;98719.66;2088386;28;19981;-50
2022/04/27 03:15:24;;;;;;;;;;;;;;;17.47;62.76;98727.69;2091643;28;19924;-47
2022/04/27 03:16:25;;;;;;;;;;;;;;;17.44;62.83;98723.59;2087791;28;19956;-47
2022/04/27 03:17:27;;;;;;;;;;;;;;;17.45;63.14;98721.72;2085199;28;20301;-50
2022/04/27 03:18:27;;;;;;;;;;;;;;;17.44;62.99;98726.28;2088150;28;19927;-48
2022/04/27 03:19:29;;;;;;;;;;;;;;;17.44;62.81;98726.28;2089003;28;19920;-47
2022/04/27 03:20:29;;;;;;;;;;;;;;;17.45;62.80;98727.91;2089014;28;20022;-47
2022/04/27 03:21:32;;;;;;;;;;;;;;;17.45;63.06;98725.22;2087861;28;19924;-47
2022/04/27 03:22:33;;;;;;;;;;;;;;;17.42;62.86;98729.13;2088519;28;19977;-47
2022/04/27 03:23:34;;;;;;;;;;;;;;;17.40;62.91;98725.81;2087337;28;19924;-51
2022/04/27 03:24:37;;;;;;;;;;;;;;;17.40;62.99;98735.69;2086229;28;20969;-50
2022/04/27 03:25:39;;;;;;;;;;;;;;;17.42;62.84;98729.13;2087110;28;22679;-50
2022/04/27 03:26:39;;;;;;;;;;;;;;;17.43;62.63;98732.63;2083426;28;20559;-50
2022/04/27 03:27:41;;;;;;;;;;;;;;;17.41;63.00;98730.16;2087511;28;19924;-51
2022/04/27 03:28:41;;;;;;;;;;;;;;;17.43;62.87;98735.31;2086893;28;19925;-50
2022/04/27 03:29:43;;;;;;;;;;;;;;;17.40;62.89;98730.34;2088299;28;20027;-46
2022/04/27 03:30:43;;;;;;;;;;;;;;;17.40;62.72;98731.16;2084679;28;19920;-50
2022/04/27 03:31:45;;;;;;;;;;;;;;;17.41;63.04;98734.66;2085683;28;21090;-48
2022/04/27 03:32:45;;;;;;;;;;;;;;;17.41;62.93;98737.34;2087703;28;19920;-51
2022/04/27 03:33:47;;;;;;;;;;;;;;;17.40;62.99;98725.81;2086835;28;20020;-48
2022/04/27 03:34:48;;;;;;;;;;;;;;;17.42;62.98;98728.31;2085030;28;19978;-50
2022/04/27 03:35:49;;;;;;;;;;;;;;;17.44;62.90;98728.94;2086061;28;20363;-49
2022/04/27 03:36:51;;;;;;;;;;;;;;;17.41;62.98;98727.47;2087977;28;20358;-48
2022/04/27 03:37:51;;;;;;;;;;;;;;;17.39;62.93;98729.53;2088343;28;19936;-45
2022/04/27 03:38:53;;;;;;;;;;;;;;;17.38;62.97;98732.38;2082617;28;19951;-50
2022/04/27 03:39:55;;;;;;;;;;;;;;;17.41;63.06;98729.31;2086173;28;19921;-46
2022/04/27 03:40:57;;;;;;;;;;;;;;;17.41;62.89;98732.84;2085398;28;19972;-47
2022/04/27 03:41:57;;;;;;;;;;;;;;;17.42;62.81;98723.75;2088378;28;19935;-47
2022/04/27 03:42:59;;;;;;;;;;;;;;;17.39;62.73;98726.00;2088464;28;19927;-49
2022/04/27 03:43:59;;;;;;;;;;;;;;;17.39;62.98;98731.38;2087215;28;20546;-47
2022/04/27 03:45:01;;;;;;;;;;;;;;;17.40;62.88;98727.66;2086431;28;19925;-46
2022/04/27 03:46:03;;;;;;;;;;;;;;;17.38;63.00;98729.69;2087403;28;20452;-50
2022/04/27 03:47:04;;;;;;;;;;;;;;;17.38;62.96;98732.38;2089186;28;19924;-50
2022/04/27 03:48:06;;;;;;;;;;;;;;;17.39;62.99;98728.69;2081458;28;19970;-53
2022/04/27 03:49:06;;;;;;;;;;;;;;;17.40;63.12;98727.66;2083419;28;20454;-45
2022/04/27 03:50:08;;;;;;;;;;;;;;;17.41;62.87;98734.66;2082454;28;19925;-53
2022/04/27 03:51:09;;;;;;;;;;;;;;;17.41;62.89;98732.84;2084268;28;19924;-47
2022/04/27 03:52:10;;;;;;;;;;;;;;;17.37;62.64;98731.56;2086880;28;19928;-48
2022/04/27 03:53:11;;;;;;;;;;;;;;;17.40;62.77;98731.16;2086946;28;20604;-51
2022/04/27 03:54:12;;;;;;;;;;;;;;;17.37;62.87;98731.56;2085260;28;19921;-45
2022/04/27 03:55:14;;;;;;;;;;;;;;;17.38;62.86;98733.22;2084345;28;21071;-46
2022/04/27 03:56:16;;;;;;;;;;;;;;;17.35;62.81;98727.41;2086748;28;20020;-49
2022/04/27 03:57:16;;;;;;;;;;;;;;;17.35;62.97;98727.41;2087784;28;19924;-47
2022/04/27 03:58:19;;;;;;;;;;;;;;;17.37;62.95;98726.19;2090433;28;20454;-47
2022/04/27 03:59:19;;;;;;;;;;;;;;;17.40;63.01;98727.66;2087123;28;19928;-52
2022/04/27 04:00:21;;;;;;;;;;;;;;;17.38;62.82;98732.38;2085257;28;20268;-49
2022/04/27 04:01:22;;;;;;;;;;;;;;;17.38;62.94;98730.56;2087576;28;19928;-52
2022/04/27 04:02:24;;;;;;;;;;;;;;;17.39;63.07;98729.53;2089212;28;19924;-50
2022/04/27 04:03:24;;;;;;;;;;;;;;;17.38;62.79;98721.66;2087612;28;19928;-46
2022/04/27 04:04:26;;;;;;;;;;;;;;;17.38;62.91;98727.88;2087035;28;20383;-51
2022/04/27 04:05:26;;;;;;;;;;;;;;;17.37;62.97;98730.72;2089305;28;19925;-50
2022/04/27 04:06:28;;;;;;;;;;;;;;;17.37;62.93;98736.09;2085985;28;20426;-48
2022/04/27 04:07:28;;;;;;;;;;;;;;;17.34;62.82;98725.75;2086784;28;20310;-48
2022/04/27 04:08:30;;;;;;;;;;;;;;;17.35;62.95;98728.22;2090574;28;19928;-48
2022/04/27 04:09:30;;;;;;;;;;;;;;;17.37;62.98;98728.06;2083168;28;19925;-47
2022/04/27 04:10:33;;;;;;;;;;;;;;;17.38;62.88;98732.38;2086228;28;19920;-49
2022/04/27 04:11:34;;;;;;;;;;;;;;;17.38;63.06;98727.00;2087266;28;19932;-51
2022/04/27 04:12:35;;;;;;;;;;;;;;;17.35;62.99;98736.28;2086599;28;19960;-52
2022/04/27 04:13:36;;;;;;;;;;;;;;;17.35;63.03;98735.44;2084368;28;20074;-51
2022/04/27 04:14:37;;;;;;;;;;;;;;;17.34;62.96;98734.63;2087217;28;20475;-49
2022/04/27 04:15:38;;;;;;;;;;;;;;;17.34;62.91;98728.44;2089768;28;19928;-46
2022/04/27 04:16:39;;;;;;;;;;;;;;;17.34;63.17;98740.00;2087037;28;19928;-49
2022/04/27 04:17:44;;;;;;;;;;;;;;;17.36;62.97;98737.94;2089677;28;19920;-50
2022/04/27 04:18:46;;;;;;;;;;;;;;;17.35;62.97;98733.59;2088158;28;19978;-48
2022/04/27 04:19:46;;;;;;;;;;;;;;;17.36;63.03;98742.50;2089759;28;19924;-49
2022/04/27 04:20:48;;;;;;;;;;;;;;;17.35;63.12;98743.50;2088484;28;20485;-50
2022/04/27 04:21:48;;;;;;;;;;;;;;;17.35;62.92;98743.50;2090259;28;19924;-50
2022/04/27 04:22:50;;;;;;;;;;;;;;;17.34;62.97;98748.03;2088338;28;19921;-50
2022/04/27 04:23:52;;;;;;;;;;;;;;;17.34;63.05;98737.31;2087446;28;19935;-47
2022/04/27 04:28:51;;;;;;;;;;;;;;;17.36;62.98;98745.16;2089203;28;19962;-48
2022/04/27 04:29:52;;;;;;;;;;;;;;;17.36;63.02;98743.31;2086264;28;19920;-50
2022/04/27 04:30:53;;;;;;;;;;;;;;;17.36;62.84;98742.50;2083335;28;19928;-50
2022/04/27 04:31:55;;;;;;;;;;;;;;;17.35;62.78;98744.31;2085453;28;19932;-48
2022/04/27 04:32:55;;;;;;;;;;;;;;;17.36;63.14;98745.16;2086004;28;19920;-52
2022/04/27 04:33:57;;;;;;;;;;;;;;;17.36;63.02;98745.16;2085318;28;20589;-49
2022/04/27 04:34:57;;;;;;;;;;;;;;;17.36;63.06;98739.81;2087396;28;19924;-46
2022/04/27 04:36:00;;;;;;;;;;;;;;;17.36;62.89;98747.84;2086799;28;19921;-50
2022/04/27 04:37:01;;;;;;;;;;;;;;;17.35;62.82;98746.16;2087542;28;20019;-47
2022/04/27 04:38:04;;;;;;;;;;;;;;;17.32;62.74;98751.91;2085775;28;19924;-51
2022/04/27 04:39:05;;;;;;;;;;;;;;;17.33;63.07;98743.69;2083725;28;19924;-48
2022/04/27 04:40:07;;;;;;;;;;;;;;;17.34;63.02;98750.72;2084258;28;19920;-47
2022/04/27 04:41:08;;;;;;;;;;;;;;;17.33;62.98;98746.38;2090989;28;19951;-49
2022/04/27 04:42:10;;;;;;;;;;;;;;;17.32;62.97;98744.69;2086027;28;19925;-50
2022/04/27 04:43:12;;;;;;;;;;;;;;;17.32;62.71;98749.25;2089839;28;19985;-51
2022/04/27 04:44:12;;;;;;;;;;;;;;;17.33;63.08;98748.25;2085476;28;19928;-46
2022/04/27 04:45:14;;;;;;;;;;;;;;;17.29;62.93;98745.09;2086509;28;19924;-48
2022/04/27 04:46:15;;;;;;;;;;;;;;;17.28;62.95;98748.81;2087121;28;20011;-50
2022/04/27 04:47:16;;;;;;;;;;;;;;;17.30;62.89;98753.97;2091115;28;19920;-48
2022/04/27 04:48:17;;;;;;;;;;;;;;;17.30;62.88;98749.44;2093259;28;19935;-48
2022/04/27 04:49:18;;;;;;;;;;;;;;;17.31;62.93;98750.28;2091088;28;19971;-48
2022/04/27 04:50:19;;;;;;;;;;;;;;;17.30;62.82;98746.78;2091845;28;19928;-48
2022/04/27 04:51:20;;;;;;;;;;;;;;;17.33;62.83;98753.59;2091044;28;19946;-48
2022/04/27 04:52:21;;;;;;;;;;;;;;;17.32;63.02;98751.91;2082469;28;20328;-48
2022/04/27 04:53:22;;;;;;;;;;;;;;;17.29;63.01;98757.66;2083677;28;19920;-51
2022/04/27 04:54:23;;;;;;;;;;;;;;;17.27;63.05;98755.16;2089955;28;19924;-48
2022/04/27 04:55:25;;;;;;;;;;;;;;;17.30;63.06;98762.00;2092231;28;19943;-50
2022/04/27 04:56:26;;;;;;;;;;;;;;;17.29;62.74;98757.66;2089072;28;19962;-49
2022/04/27 04:57:28;;;;;;;;;;;;;;;17.29;63.06;98750.44;2090650;28;20647;-48
2022/04/27 04:58:29;;;;;;;;;;;;;;;17.29;63.24;98761.16;2085084;28;19932;-47
2022/04/27 04:59:30;;;;;;;;;;;;;;;17.29;62.98;98757.66;2089557;28;19921;-48
2022/04/27 05:00:31;;;;;;;;;;;;;;;17.30;63.06;98762.84;2088558;28;19925;-45
2022/04/27 05:01:32;;;;;;;;;;;;;;;17.29;63.00;98763.84;2091398;28;19975;-46
2022/04/27 05:02:33;;;;;;;;;;;;;;;17.29;62.98;98766.53;2088641;28;19920;-47
2022/04/27 05:03:36;;;;;;;;;;;;;;;17.30;62.85;98756.63;2087494;28;20057;-48
2022/04/27 05:04:37;;;;;;;;;;;;;;;17.32;62.86;98760.78;2087163;28;19927;-46
2022/04/27 05:05:38;;;;;;;;;;;;;;;17.32;63.09;98757.28;2086134;28;19925;-50
2022/04/27 05:06:40;;;;;;;;;;;;;;;17.31;63.05;98767.19;2088544;28;19925;-50
2022/04/27 05:07:41;;;;;;;;;;;;;;;17.30;62.93;98759.31;2091099;28;19921;-46
2022/04/27 05:08:42;;;;;;;;;;;;;;;17.30;62.91;98762.00;2085159;28;20012;-49
2022/04/27 05:09:43;;;;;;;;;;;;;;;17.30;62.76;98768.22;2087609;28;19944;-48
2022/04/27 05:10:45;;;;;;;;;;;;;;;17.30;62.83;98764.69;2093148;28;19928;-48
2022/04/27 05:11:45;;;;;;;;;;;;;;;17.29;62.93;98766.53;2089277;28;19928;-48
2022/04/27 05:12:48;;;;;;;;;;;;;;;17.29;63.05;98765.72;2089559;28;20490;-51
2022/04/27 05:13:49;;;;;;;;;;;;;;;17.28;62.94;98767.56;2092752;28;19920;-48
2022/04/27 05:14:50;;;;;;;;;;;;;;;17.28;62.95;98762.22;2090250;28;19942;-51
2022/04/27 05:15:51;;;;;;;;;;;;;;;17.32;62.92;98770.69;2085466;28;19932;-48
2022/04/27 05:16:53;;;;;;;;;;;;;;;17.31;63.04;98769.88;2088801;28;19920;-49
2022/04/27 05:17:54;;;;;;;;;;;;;;;17.30;63.12;98767.34;2087433;28;19928;-50
2022/04/27 05:18:55;;;;;;;;;;;;;;;17.27;62.77;98763.22;2089379;28;19925;-49
2022/04/27 05:19:56;;;;;;;;;;;;;;;17.26;62.97;98763.41;2092027;28;19927;-50
2022/04/27 05:20:57;;;;;;;;;;;;;;;17.26;63.08;98766.09;2091915;28;19942;-47
2022/04/27 05:21:58;;;;;;;;;;;;;;;17.27;63.21;98767.75;2090043;28;19928;-46
2022/04/27 05:22:59;;;;;;;;;;;;;;;17.26;62.95;98768.78;2087409;28;20371;-46
2022/04/27 05:24:00;;;;;;;;;;;;;;;17.28;62.80;98774.78;2084993;28;19920;-46
2022/04/27 05:25:02;;;;;;;;;;;;;;;17.27;62.98;98781.97;2091727;28;19931;-45
2022/04/27 05:26:04;;;;;;;;;;;;;;;17.25;62.94;98781.34;2090204;28;19980;-46
2022/04/27 05:27:04;;;;;;;;;;;;;;;17.25;63.02;98780.53;2092580;28;19924;-46
2022/04/27 05:28:07;;;;;;;;;;;;;;;17.26;63.16;98785.69;2091859;28;19952;-54
2022/04/27 05:31:54;;;;;;;;;;;;;;;17.26;62.91;98784.88;2088730;28;19932;-47
2022/04/27 05:32:56;;;;;;;;;;;;;;;17.26;62.99;98782.19;2091661;28;19993;-46
2022/04/27 05:33:57;;;;;;;;;;;;;;;17.27;63.03;98786.50;2088595;28;19928;-44